Manitowoc — WDE3569 — position and weather

sailwx.info

Track history (hours):
 
Tides and Currents Weather Stations Pressure Air Temp Water Temp Dewpoint Dewpoint Depression Visibility Wind Speed Wind Dir Waves Ship Positions

Manitowoc

Owner: Grand River Navigation Company, Traverse City, MI. More information available from US FCC via Universal Licensing System and Coast Guard Vessel Documentation Center.

Last reported at 2017-Sep-24 03:00 UTC. Time now 2017-Sep-24 08:50 UTC.
Position N 44°42' W 082°48'.

Length 206 m; draft 7 m.

Type: Cargo ship. MMSI: 367341010.

Wind from 200 at 17 knots

Barometer 1017.2 mb
Air temperature 22.2 ° C

Date/timePositionNaut miles runAvg speedWind from/ knotsBaromVisibWave heightAir tempDewpointWater temp
2017-Sep-24 03:00N 44°42' W 082°48'1312.7 200 / 171017.2 22.2
2017-Sep-24 02:00N 44°54' W 082°54'170170.1 190 / 171016.9 21.6
2017-Sep-24 01:00N 45°06' W 086°54'161160.9 190 / 171016.9 21.1
2017-Sep-24 00:00N 45°12' W 083°06'1912.9 190 / 191016.2 5.4 21.6
2017-Sep-23 22:29N 45°27' W 083°24'811.9
2017-Sep-23 21:48N 45°32' W 083°33'411.9
2017-Sep-23 21:30N 45°34' W 083°37'812.0
2017-Sep-23 20:48N 45°40' W 083°46'412.2
2017-Sep-23 20:30N 45°42' W 083°50'69 3.6
2017-Sep-23 01:00N 44°42' W 083°00'1312.7 140 / 121017.6 19.4
2017-Sep-23 00:00N 44°30' W 083°06'27 1.2 330 / 331016.5 5.4 23.3
2017-Sep-22 01:00N 44°06' W 083°24'1514.8 200 / 81015.5 22.7
2017-Sep-22 00:00N 44°18' W 083°12'6710.8 120 / 91015.5 5.4 22.2
2017-Sep-21 17:50N 45°24' W 083°27'712.1
2017-Sep-21 17:15N 45°29' W 083°34'312.1
2017-Sep-21 17:00N 45°31' W 083°36'173.9
2017-Sep-21 17:00N 45°30' W 083°36'814.3 150 / 41016.2 5.4 19.4
2017-Sep-21 16:26N 45°36' W 083°43'192132.9
2017-Sep-21 15:00N 48°48' W 084°00'16927.2 1015.910.8 18.8
2017-Sep-21 08:46N 45°59' W 084°17'0 0.0
2017-Sep-21 08:10N 45°59' W 084°17'0 0.0
2017-Sep-21 06:28N 45°59' W 084°17'0 0.0
2017-Sep-21 04:36N 45°59' W 084°17'0 0.0
2017-Sep-21 04:26N 45°59' W 084°17'0 1.0
2017-Sep-21 04:01N 45°59' W 084°16'4 7.1
2017-Sep-21 03:30N 45°56' W 084°14'611.8
2017-Sep-21 03:00N 45°54' W 084°22'612.2
2017-Sep-21 02:30N 45°52' W 084°30'612.4
2017-Sep-21 02:00N 45°50' W 084°39'3234.9
2017-Sep-21 02:00N 45°48' W 084°36'816.3 130 / 131011.5 18.8
2017-Sep-21 01:30N 45°49' W 084°47'612.4
2017-Sep-21 01:00N 45°49' W 084°56'23917178.8
2017-Sep-21 01:00N 49°48' W 084°54'238493.6 160 / 101011.5 21.6
2017-Sep-21 00:31N 45°50' W 085°05'510.7
2017-Sep-21 00:00N 45°45' W 085°10'612.8
2017-Sep-20 23:30N 45°40' W 085°15'612.9
2017-Sep-20 23:00N 45°35' W 085°20'712.9
2017-Sep-20 22:30N 45°30' W 085°26'612.9
2017-Sep-20 22:00N 45°25' W 085°31'613.0
2017-Sep-20 21:30N 45°19' W 085°37'713.1
2017-Sep-20 21:00N 45°14' W 085°42'41 2.3
2017-Sep-20 03:00N 44°42' W 086°18'7 7.4 100 / 101013.5 18.8
2017-Sep-20 02:00N 44°48' W 086°12'1514.7 070 / 91013.5 18.3
2017-Sep-20 01:00N 45°00' W 086°00'1 5.1 040 / 101013.2 18.3
2017-Sep-20 00:51N 45°00' W 085°59'412.5
2017-Sep-20 00:30N 45°03' W 085°55'612.7
2017-Sep-20 00:00N 45°08' W 085°49'4247.1
2017-Sep-20 00:00N 45°06' W 085°54'1021.2 050 / 61013.2 5.4 18.8
2017-Sep-19 23:30N 45°13' W 085°43'612.7
2017-Sep-19 23:00N 45°18' W 085°38'612.7
2017-Sep-19 22:30N 45°23' W 085°33'612.5
2017-Sep-19 22:00N 45°28' W 085°27'612.6
2017-Sep-19 21:30N 45°33' W 085°22'612.7
2017-Sep-19 21:00N 45°38' W 085°17'612.7
2017-Sep-19 20:30N 45°44' W 085°11'510.6
2017-Sep-19 20:00N 45°49' W 085°09'611.5
2017-Sep-19 19:30N 45°50' W 085°01'613.0
2017-Sep-19 19:00N 45°49' W 084°51'713.3
2017-Sep-19 18:30N 45°49' W 084°42'612.6
2017-Sep-19 18:00N 45°51' W 084°33'612.8
2017-Sep-19 17:30N 45°52' W 084°24'712.8
2017-Sep-19 16:58N 45°53' W 084°15'612.7
2017-Sep-19 16:30N 45°54' W 084°06'712.7
2017-Sep-19 15:57N 45°56' W 083°56'65 6.9
2017-Sep-19 06:25N 46°47' W 084°55'1112.2
2017-Sep-19 05:30N 46°52' W 085°09'612.5
2017-Sep-19 05:00N 46°55' W 085°17'612.6
2017-Sep-19 04:30N 46°58' W 085°26'612.7
2017-Sep-19 04:00N 47°00' W 085°34'612.7
2017-Sep-19 03:30N 47°03' W 085°43'612.7
2017-Sep-19 03:00N 47°05' W 085°51'2120.9
2017-Sep-19 03:00N 47°06' W 085°54'5 9.3 090 / 101017.2 13.3
2017-Sep-19 02:29N 47°08' W 086°00'918.0
2017-Sep-19 02:00N 47°12' W 086°12'2144.4 090 / 101017.2 13.3
2017-Sep-19 01:58N 47°11' W 086°09'1312.8
2017-Sep-19 01:00N 47°18' W 086°24'1212.2 100 / 61017.6 12.7
2017-Sep-19 00:00N 47°18' W 086°42'10611.8 150 / 91017.2 5.4 12.7
2017-Sep-18 15:00N 47°30' W 089°18'1212.2 190 / 131019.210.8 12.7
2017-Sep-18 14:00N 47°30' W 089°36'1010.1 190 / 141018.610.8 12.7
2017-Sep-18 13:00N 47°24' W 089°48'1212.2 150 / 101018.210.8 12.2
2017-Sep-18 12:00N 47°24' W 090°06'7712.3 170 / 131018.910.8 12.2
2017-Sep-18 05:44N 46°53' W 091°50'312.5
2017-Sep-18 05:30N 46°52' W 091°53'612.7
2017-Sep-18 05:01N 46°48' W 092°01'4 8.1
2017-Sep-18 04:30N 46°46' W 092°06'2 3.0
2017-Sep-18 04:00N 46°45' W 092°07'0 0.0
2017-Sep-18 03:26N 46°45' W 092°07'0 0.0
2017-Sep-18 02:56N 46°45' W 092°07'0 0.0
2017-Sep-18 02:23N 46°45' W 092°07'0 0.0
2017-Sep-18 01:56N 46°45' W 092°07'0 0.0
2017-Sep-18 01:26N 46°45' W 092°07'0 0.0
2017-Sep-18 00:59N 46°45' W 092°07'0 0.0
2017-Sep-18 00:29N 46°45' W 092°07'1 1.8
2017-Sep-18 00:00N 46°45' W 092°06'1 1.0
2017-Sep-17 23:28N 46°46' W 092°06'0 0.0
2017-Sep-17 22:58N 46°46' W 092°06'0 0.0
2017-Sep-17 22:19N 46°46' W 092°06'0 0.0
2017-Sep-17 21:58N 46°46' W 092°06'1 1.8
2017-Sep-17 21:30N 46°45' W 092°06'1 1.6
2017-Sep-17 20:58N 46°44' W 092°07'0 0.0
2017-Sep-17 20:28N 46°44' W 092°07'0 0.0
2017-Sep-17 19:58N 46°44' W 092°07'0 0.0
2017-Sep-17 19:28N 46°44' W 092°07'0 0.0
2017-Sep-17 18:58N 46°44' W 092°07'0 0.0
2017-Sep-17 18:28N 46°44' W 092°07'0 0.0
2017-Sep-17 17:58N 46°44' W 092°07'0 0.0
2017-Sep-17 17:28N 46°44' W 092°07'0 0.0
2017-Sep-17 17:01N 46°44' W 092°07'0 0.0
2017-Sep-17 16:28N 46°44' W 092°07'0 0.0
2017-Sep-17 16:01N 46°44' W 092°07'0 0.0
2017-Sep-17 15:18N 46°44' W 092°07'0 0.0
2017-Sep-17 14:49N 46°44' W 092°07'0 0.0
2017-Sep-17 14:16N 46°44' W 092°07'0 0.0
2017-Sep-17 13:52N 46°44' W 092°07'0 0.0
2017-Sep-17 13:22N 46°44' W 092°07'0 0.0
2017-Sep-17 13:01N 46°44' W 092°07'0 0.0
2017-Sep-17 12:18N 46°44' W 092°07'0 0.0
2017-Sep-17 12:00N 46°44' W 092°07'0 0.7
2017-Sep-17 11:31N 46°45' W 092°07'1 2.2
2017-Sep-17 11:01N 46°45' W 092°06'2 3.5
2017-Sep-17 10:31N 46°47' W 092°05'9112.1
2017-Sep-17 03:00N 47°18' W 090°00'1212.2 040 / 91010.8 13.8
2017-Sep-17 02:00N 47°18' W 089°42'1212.2 130 / 101010.8 16.1
2017-Sep-17 01:00N 47°18' W 089°24'1413.6 100 / 101010.8 16.1
2017-Sep-17 00:00N 47°24' W 089°06'10611.8 090 / 81011.110.8 17.2
2017-Sep-16 15:00N 47°12' W 086°30'1010.1 180 / 251013.210.8 17.2
2017-Sep-16 14:00N 47°06' W 086°18'1212.3 180 / 181013.810.8 17.2
2017-Sep-16 13:00N 47°06' W 086°00'1413.7 170 / 181014.210.8 17.2
2017-Sep-16 12:00N 47°00' W 085°42'5811.9 190 / 91014.510.8 17.7
2017-Sep-16 07:07N 46°27' W 084°32'110.2
2017-Sep-16 06:59N 46°27' W 084°31'10 3.6
2017-Sep-16 04:09N 46°26' W 084°16'1 7.4
2017-Sep-16 04:00N 46°26' W 084°15'5 9.2
2017-Sep-16 03:27N 46°21' W 084°12'3 6.9
2017-Sep-16 03:00N 46°19' W 084°08'4 7.0
2017-Sep-16 02:27N 46°16' W 084°06'3 7.6
2017-Sep-16 02:00N 46°12' W 084°07'510.8
2017-Sep-16 01:30N 46°09' W 084°02'5 9.9
2017-Sep-16 01:00N 46°04' W 083°59'510.7
2017-Sep-16 00:30N 46°01' W 083°53'611.6
2017-Sep-16 00:00N 45°55' W 083°52'612.5
2017-Sep-15 23:30N 45°50' W 083°46'712.5
2017-Sep-15 22:58N 45°45' W 083°40'612.4
2017-Sep-15 22:30N 45°41' W 083°34'612.4
2017-Sep-15 22:00N 45°37' W 083°28'612.4
2017-Sep-15 21:30N 45°32' W 083°22'612.4
2017-Sep-15 21:00N 45°28' W 083°16'7512.5
2017-Sep-15 15:00N 44°18' W 082°36'2010.0 200 / 81017.910.8 18.3
2017-Sep-15 13:00N 44°00' W 082°24'   220 / 111017.910.8 17.7
Track history (hours):
 
Tides and Currents Weather Stations Pressure Air Temp Water Temp Dewpoint Dewpoint Depression Visibility Wind Speed Wind Dir Waves Ship Positions

Manitowoc

Owner: Grand River Navigation Company, Traverse City, MI. More information available from US FCC via Universal Licensing System and Coast Guard Vessel Documentation Center.

Last reported at 2017-Sep-24 03:00 UTC. Time now 2017-Sep-24 08:50 UTC.
Position N 44°42' W 082°48'.

Length 206 m; draft 7 m.

Type: Cargo ship. MMSI: 367341010.

Wind from 200 at 17 knots

Barometer 1017.2 mb
Air temperature 22.2 ° C

Date/timePositionNaut miles runAvg speedWind from/ knotsBaromVisibWave heightAir tempDewpointWater temp
2017-Sep-24 03:00N 44°42' W 082°48'1312.7 200 / 171017.2 22.2
2017-Sep-24 02:00N 44°54' W 082°54'170170.1 190 / 171016.9 21.6
2017-Sep-24 01:00N 45°06' W 086°54'161160.9 190 / 171016.9 21.1
2017-Sep-24 00:00N 45°12' W 083°06'1912.9 190 / 191016.2 5.4 21.6
2017-Sep-23 22:29N 45°27' W 083°24'811.9
2017-Sep-23 21:48N 45°32' W 083°33'411.9
2017-Sep-23 21:30N 45°34' W 083°37'812.0
2017-Sep-23 20:48N 45°40' W 083°46'412.2
2017-Sep-23 20:30N 45°42' W 083°50'69 3.6
2017-Sep-23 01:00N 44°42' W 083°00'1312.7 140 / 121017.6 19.4
2017-Sep-23 00:00N 44°30' W 083°06'27 1.2 330 / 331016.5 5.4 23.3
2017-Sep-22 01:00N 44°06' W 083°24'1514.8 200 / 81015.5 22.7
2017-Sep-22 00:00N 44°18' W 083°12'6710.8 120 / 91015.5 5.4 22.2
2017-Sep-21 17:50N 45°24' W 083°27'712.1
2017-Sep-21 17:15N 45°29' W 083°34'312.1
2017-Sep-21 17:00N 45°31' W 083°36'173.9
2017-Sep-21 17:00N 45°30' W 083°36'814.3 150 / 41016.2 5.4 19.4
2017-Sep-21 16:26N 45°36' W 083°43'192132.9
2017-Sep-21 15:00N 48°48' W 084°00'16927.2 1015.910.8 18.8
2017-Sep-21 08:46N 45°59' W 084°17'0 0.0
2017-Sep-21 08:10N 45°59' W 084°17'0 0.0
2017-Sep-21 06:28N 45°59' W 084°17'0 0.0
2017-Sep-21 04:36N 45°59' W 084°17'0 0.0
2017-Sep-21 04:26N 45°59' W 084°17'0 1.0
2017-Sep-21 04:01N 45°59' W 084°16'4 7.1
2017-Sep-21 03:30N 45°56' W 084°14'611.8
2017-Sep-21 03:00N 45°54' W 084°22'612.2
2017-Sep-21 02:30N 45°52' W 084°30'612.4
2017-Sep-21 02:00N 45°50' W 084°39'3234.9
2017-Sep-21 02:00N 45°48' W 084°36'816.3 130 / 131011.5 18.8
2017-Sep-21 01:30N 45°49' W 084°47'612.4
2017-Sep-21 01:00N 45°49' W 084°56'23917178.8
2017-Sep-21 01:00N 49°48' W 084°54'238493.6 160 / 101011.5 21.6
2017-Sep-21 00:31N 45°50' W 085°05'510.7
2017-Sep-21 00:00N 45°45' W 085°10'612.8
2017-Sep-20 23:30N 45°40' W 085°15'612.9
2017-Sep-20 23:00N 45°35' W 085°20'712.9
2017-Sep-20 22:30N 45°30' W 085°26'612.9
2017-Sep-20 22:00N 45°25' W 085°31'613.0
2017-Sep-20 21:30N 45°19' W 085°37'713.1
2017-Sep-20 21:00N 45°14' W 085°42'41 2.3
2017-Sep-20 03:00N 44°42' W 086°18'7 7.4 100 / 101013.5 18.8
2017-Sep-20 02:00N 44°48' W 086°12'1514.7 070 / 91013.5 18.3
2017-Sep-20 01:00N 45°00' W 086°00'1 5.1 040 / 101013.2 18.3
2017-Sep-20 00:51N 45°00' W 085°59'412.5
2017-Sep-20 00:30N 45°03' W 085°55'612.7
2017-Sep-20 00:00N 45°08' W 085°49'4247.1
2017-Sep-20 00:00N 45°06' W 085°54'1021.2 050 / 61013.2 5.4 18.8
2017-Sep-19 23:30N 45°13' W 085°43'612.7
2017-Sep-19 23:00N 45°18' W 085°38'612.7
2017-Sep-19 22:30N 45°23' W 085°33'612.5
2017-Sep-19 22:00N 45°28' W 085°27'612.6
2017-Sep-19 21:30N 45°33' W 085°22'612.7
2017-Sep-19 21:00N 45°38' W 085°17'612.7
2017-Sep-19 20:30N 45°44' W 085°11'510.6
2017-Sep-19 20:00N 45°49' W 085°09'611.5
2017-Sep-19 19:30N 45°50' W 085°01'613.0
2017-Sep-19 19:00N 45°49' W 084°51'713.3
2017-Sep-19 18:30N 45°49' W 084°42'612.6
2017-Sep-19 18:00N 45°51' W 084°33'612.8
2017-Sep-19 17:30N 45°52' W 084°24'712.8
2017-Sep-19 16:58N 45°53' W 084°15'612.7
2017-Sep-19 16:30N 45°54' W 084°06'712.7
2017-Sep-19 15:57N 45°56' W 083°56'65 6.9
2017-Sep-19 06:25N 46°47' W 084°55'1112.2
2017-Sep-19 05:30N 46°52' W 085°09'612.5
2017-Sep-19 05:00N 46°55' W 085°17'612.6
2017-Sep-19 04:30N 46°58' W 085°26'612.7
2017-Sep-19 04:00N 47°00' W 085°34'612.7
2017-Sep-19 03:30N 47°03' W 085°43'612.7
2017-Sep-19 03:00N 47°05' W 085°51'2120.9
2017-Sep-19 03:00N 47°06' W 085°54'5 9.3 090 / 101017.2 13.3
2017-Sep-19 02:29N 47°08' W 086°00'918.0
2017-Sep-19 02:00N 47°12' W 086°12'2144.4 090 / 101017.2 13.3
2017-Sep-19 01:58N 47°11' W 086°09'1312.8
2017-Sep-19 01:00N 47°18' W 086°24'1212.2 100 / 61017.6 12.7
2017-Sep-19 00:00N 47°18' W 086°42'10611.8 150 / 91017.2 5.4 12.7
2017-Sep-18 15:00N 47°30' W 089°18'1212.2 190 / 131019.210.8 12.7
2017-Sep-18 14:00N 47°30' W 089°36'1010.1 190 / 141018.610.8 12.7
2017-Sep-18 13:00N 47°24' W 089°48'1212.2 150 / 101018.210.8 12.2
2017-Sep-18 12:00N 47°24' W 090°06'7712.3 170 / 131018.910.8 12.2
2017-Sep-18 05:44N 46°53' W 091°50'312.5
2017-Sep-18 05:30N 46°52' W 091°53'612.7
2017-Sep-18 05:01N 46°48' W 092°01'4 8.1
2017-Sep-18 04:30N 46°46' W 092°06'2 3.0
2017-Sep-18 04:00N 46°45' W 092°07'0 0.0
2017-Sep-18 03:26N 46°45' W 092°07'0 0.0
2017-Sep-18 02:56N 46°45' W 092°07'0 0.0
2017-Sep-18 02:23N 46°45' W 092°07'0 0.0
2017-Sep-18 01:56N 46°45' W 092°07'0 0.0
2017-Sep-18 01:26N 46°45' W 092°07'0 0.0
2017-Sep-18 00:59N 46°45' W 092°07'0 0.0
2017-Sep-18 00:29N 46°45' W 092°07'1 1.8
2017-Sep-18 00:00N 46°45' W 092°06'1 1.0
2017-Sep-17 23:28N 46°46' W 092°06'0 0.0
2017-Sep-17 22:58N 46°46' W 092°06'0 0.0
2017-Sep-17 22:19N 46°46' W 092°06'0 0.0
2017-Sep-17 21:58N 46°46' W 092°06'1 1.8
2017-Sep-17 21:30N 46°45' W 092°06'1 1.6
2017-Sep-17 20:58N 46°44' W 092°07'0 0.0
2017-Sep-17 20:28N 46°44' W 092°07'0 0.0
2017-Sep-17 19:58N 46°44' W 092°07'0 0.0
2017-Sep-17 19:28N 46°44' W 092°07'0 0.0
2017-Sep-17 18:58N 46°44' W 092°07'0 0.0
2017-Sep-17 18:28N 46°44' W 092°07'0 0.0
2017-Sep-17 17:58N 46°44' W 092°07'0 0.0
2017-Sep-17 17:28N 46°44' W 092°07'0 0.0
2017-Sep-17 17:01N 46°44' W 092°07'0 0.0
2017-Sep-17 16:28N 46°44' W 092°07'0 0.0
2017-Sep-17 16:01N 46°44' W 092°07'0 0.0
2017-Sep-17 15:18N 46°44' W 092°07'0 0.0
2017-Sep-17 14:49N 46°44' W 092°07'0 0.0
2017-Sep-17 14:16N 46°44' W 092°07'0 0.0
2017-Sep-17 13:52N 46°44' W 092°07'0 0.0
2017-Sep-17 13:22N 46°44' W 092°07'0 0.0
2017-Sep-17 13:01N 46°44' W 092°07'0 0.0
2017-Sep-17 12:18N 46°44' W 092°07'0 0.0
2017-Sep-17 12:00N 46°44' W 092°07'0 0.7
2017-Sep-17 11:31N 46°45' W 092°07'1 2.2
2017-Sep-17 11:01N 46°45' W 092°06'2 3.5
2017-Sep-17 10:31N 46°47' W 092°05'9112.1
2017-Sep-17 03:00N 47°18' W 090°00'1212.2 040 / 91010.8 13.8
2017-Sep-17 02:00N 47°18' W 089°42'1212.2 130 / 101010.8 16.1
2017-Sep-17 01:00N 47°18' W 089°24'1413.6 100 / 101010.8 16.1
2017-Sep-17 00:00N 47°24' W 089°06'10611.8 090 / 81011.110.8 17.2
2017-Sep-16 15:00N 47°12' W 086°30'1010.1 180 / 251013.210.8 17.2
2017-Sep-16 14:00N 47°06' W 086°18'1212.3 180 / 181013.810.8 17.2
2017-Sep-16 13:00N 47°06' W 086°00'1413.7 170 / 181014.210.8 17.2
2017-Sep-16 12:00N 47°00' W 085°42'5811.9 190 / 91014.510.8 17.7
2017-Sep-16 07:07N 46°27' W 084°32'110.2
2017-Sep-16 06:59N 46°27' W 084°31'10 3.6
2017-Sep-16 04:09N 46°26' W 084°16'1 7.4
2017-Sep-16 04:00N 46°26' W 084°15'5 9.2
2017-Sep-16 03:27N 46°21' W 084°12'3 6.9
2017-Sep-16 03:00N 46°19' W 084°08'4 7.0
2017-Sep-16 02:27N 46°16' W 084°06'3 7.6
2017-Sep-16 02:00N 46°12' W 084°07'510.8
2017-Sep-16 01:30N 46°09' W 084°02'5 9.9
2017-Sep-16 01:00N 46°04' W 083°59'510.7
2017-Sep-16 00:30N 46°01' W 083°53'611.6
2017-Sep-16 00:00N 45°55' W 083°52'612.5
2017-Sep-15 23:30N 45°50' W 083°46'712.5
2017-Sep-15 22:58N 45°45' W 083°40'612.4
2017-Sep-15 22:30N 45°41' W 083°34'612.4
2017-Sep-15 22:00N 45°37' W 083°28'612.4
2017-Sep-15 21:30N 45°32' W 083°22'612.4
2017-Sep-15 21:00N 45°28' W 083°16'7512.5
2017-Sep-15 15:00N 44°18' W 082°36'2010.0 200 / 81017.910.8 18.3
2017-Sep-15 13:00N 44°00' W 082°24'   220 / 111017.910.8 17.7

Dump ship's entire track history